Terminal Aerodrome Forecast
Issued by NWS North Platte, NE

Home | Current Version | Previous Version | Text Only | Print | Product List | Glossary On
Versions: 1 2 3 4 5 6 7 8 9 10 11 12 13 14 15
000
FTUS43 KLBF 230500
TAFLBF
TAF
KLBF 230523Z 2306/2406 10008KT P6SM SKC
     FM230800 09006KT P6SM VCTS BKN070CB
     FM231200 10004KT P6SM SCT070
     FM231700 13008G15KT P6SM BKN090=

USA.gov is the U.S. government's official web portal to all federal, state and local government web resources and services.